createdAt,value
2019-05-29T00:01:16.203Z,10.13
2019-05-29T00:04:16.259Z,10.70
2019-05-29T00:07:20.526Z,11.33
2019-05-29T00:10:24.937Z,11.73
2019-05-29T00:13:29.309Z,12.20
2019-05-29T00:16:33.702Z,12.13
2019-05-29T00:19:38.108Z,13.87
2019-05-29T00:22:42.463Z,12.57
2019-05-29T00:25:46.819Z,12.80
2019-05-29T00:28:51.139Z,12.20
2019-05-29T00:31:55.492Z,11.80
2019-05-29T00:34:59.857Z,11.03
2019-05-29T00:38:04.187Z,11.17
2019-05-29T00:41:08.830Z,11.80
2019-05-29T00:44:13.296Z,12.03
2019-05-29T00:47:17.776Z,11.70
2019-05-29T00:50:22.093Z,11.57
2019-05-29T00:53:26.483Z,11.80
2019-05-29T00:56:30.967Z,11.23
2019-05-29T00:59:35.644Z,11.70
2019-05-29T01:02:39.937Z,11.50
2019-05-29T01:05:44.343Z,11.47
2019-05-29T01:08:48.635Z,12.23
2019-05-29T01:11:53.022Z,11.37
2019-05-29T01:14:57.379Z,12.00
2019-05-29T01:18:01.707Z,11.67
2019-05-29T01:21:06.069Z,12.80
2019-05-29T01:24:10.472Z,12.47
2019-05-29T01:27:15.127Z,12.67
2019-05-29T01:30:19.831Z,11.70
2019-05-29T01:33:24.982Z,12.03
2019-05-29T01:36:29.574Z,11.70
2019-05-29T01:39:34.080Z,12.03
2019-05-29T01:42:38.379Z,11.53
2019-05-29T01:45:42.709Z,12.03
2019-05-29T01:48:47.092Z,11.83
2019-05-29T01:51:51.468Z,12.80
2019-05-29T01:54:55.800Z,12.00
2019-05-29T01:58:00.138Z,12.87
2019-05-29T02:01:04.531Z,12.73
2019-05-29T02:04:08.891Z,12.37
2019-05-29T02:07:13.217Z,12.50
2019-05-29T02:10:18.239Z,13.70
2019-05-29T02:13:23.535Z,13.93
2019-05-29T02:16:27.913Z,14.90
2019-05-29T02:19:32.231Z,14.47
2019-05-29T02:22:36.652Z,15.67
2019-05-29T02:25:41.019Z,13.80
2019-05-29T02:28:45.323Z,14.43
2019-05-29T02:31:49.724Z,15.13
2019-05-29T02:34:54.077Z,14.53
2019-05-29T02:37:58.462Z,14.23
2019-05-29T02:41:03.132Z,14.73
2019-05-29T02:44:07.522Z,14.13
2019-05-29T02:47:11.871Z,14.03
2019-05-29T02:50:16.175Z,13.00
2019-05-29T02:53:22.097Z,13.17
2019-05-29T02:56:27.045Z,12.23
2019-05-29T02:59:32.027Z,12.73
2019-05-29T03:02:36.675Z,11.90
2019-05-29T03:05:41.115Z,12.13
2019-05-29T03:08:45.781Z,10.47
2019-05-29T03:11:50.166Z,10.00
2019-05-29T03:14:54.568Z,10.77
2019-05-29T03:17:58.901Z,9.60
2019-05-29T03:21:03.196Z,9.43
2019-05-29T03:24:07.493Z,7.57
2019-05-29T03:27:11.860Z,7.47
2019-05-29T03:30:16.208Z,8.13
2019-05-29T03:33:20.577Z,7.93
2019-05-29T03:36:27.585Z,7.33
2019-05-29T03:39:32.327Z,6.90
2019-05-29T03:42:38.730Z,6.70
2019-05-29T03:45:43.133Z,4.33
2019-05-29T03:48:47.524Z,4.67
2019-05-29T03:51:51.920Z,3.50
2019-05-29T03:54:56.307Z,3.00
2019-05-29T03:58:00.676Z,1.93
2019-05-29T04:01:04.963Z,1.90
2019-05-29T04:04:09.289Z,0.83
2019-05-29T04:07:13.689Z,1.13
2019-05-29T04:10:29.181Z,0.87
2019-05-29T04:13:36.165Z,0.70
2019-05-29T04:16:58.522Z,0.70
2019-05-29T04:19:49.304Z,0.70
2019-05-29T04:22:54.200Z,0.70
2019-05-29T04:26:00.599Z,0.60
2019-05-29T04:29:04.988Z,0.53
2019-05-29T04:32:09.341Z,0.40
2019-05-29T04:35:13.724Z,0.70
2019-05-29T04:38:18.060Z,0.50
2019-05-29T04:41:22.497Z,0.40
2019-05-29T04:44:28.677Z,0.37
2019-05-29T04:47:33.455Z,0.40
2019-05-29T04:50:40.588Z,0.30
2019-05-29T04:53:45.257Z,0.87
2019-05-29T04:56:49.643Z,0.30
2019-05-29T04:59:54.027Z,0.40
2019-05-29T05:02:58.291Z,0.30
2019-05-29T05:06:02.677Z,0.40
2019-05-29T05:09:07.823Z,0.30
2019-05-29T05:12:12.711Z,0.57
2019-05-29T05:15:17.020Z,0.40
2019-05-29T05:18:21.447Z,0.37
2019-05-29T05:21:25.810Z,0.50
2019-05-29T05:24:30.340Z,0.50
2019-05-29T05:27:34.891Z,0.60
2019-05-29T05:30:40.625Z,0.60
2019-05-29T05:33:45.086Z,0.53
2019-05-29T05:36:49.575Z,0.73
2019-05-29T05:39:54.312Z,0.80
2019-05-29T05:42:58.693Z,0.80
2019-05-29T05:46:03.072Z,1.03
2019-05-29T05:49:07.467Z,0.80
2019-05-29T05:52:11.848Z,0.93
2019-05-29T05:55:16.391Z,0.50
2019-05-29T05:58:20.665Z,0.50
2019-05-29T06:01:25.037Z,0.40
2019-05-29T06:04:29.530Z,0.30
2019-05-29T06:07:34.115Z,0.30
2019-05-29T06:10:38.621Z,0.30
2019-05-29T06:13:43.086Z,0.30
2019-05-29T06:16:47.377Z,0.30
2019-05-29T06:19:51.716Z,0.30
2019-05-29T06:22:56.128Z,0.50
2019-05-29T06:26:00.520Z,0.30
2019-05-29T06:29:05.073Z,0.47
2019-05-29T06:32:09.564Z,0.40
2019-05-29T06:35:13.926Z,0.50
2019-05-29T06:38:18.317Z,0.40
2019-05-29T06:41:22.587Z,0.47
2019-05-29T06:44:26.906Z,0.40
2019-05-29T06:47:31.315Z,0.40
2019-05-29T06:50:37.243Z,0.30
2019-05-29T06:53:41.798Z,0.40
2019-05-29T06:56:46.133Z,0.20
2019-05-29T06:59:50.570Z,0.40
2019-05-29T07:02:54.994Z,0.30
2019-05-29T07:05:59.361Z,0.40
2019-05-29T07:09:05.659Z,0.40
2019-05-29T07:12:09.940Z,0.40
2019-05-29T07:15:14.530Z,0.40
2019-05-29T07:18:18.855Z,0.40
2019-05-29T07:21:23.360Z,0.37
2019-05-29T07:24:30.044Z,0.30
2019-05-29T07:27:34.565Z,0.20
2019-05-29T07:30:39.281Z,0.20
2019-05-29T07:33:45.186Z,0.20
2019-05-29T07:36:49.611Z,0.97
2019-05-29T07:39:53.967Z,0.30
2019-05-29T07:42:58.255Z,0.40
2019-05-29T07:46:02.667Z,0.57
2019-05-29T07:49:07.031Z,0.40
2019-05-29T07:52:11.456Z,0.50
2019-05-29T07:55:18.154Z,0.50
2019-05-29T07:58:22.537Z,0.40
2019-05-29T08:01:29.967Z,0.40
2019-05-29T08:04:34.655Z,0.40
2019-05-29T08:07:39.439Z,0.47
2019-05-29T08:10:43.964Z,0.40
2019-05-29T08:13:48.347Z,0.50
2019-05-29T08:16:52.776Z,0.43
2019-05-29T08:20:06.598Z,0.30
2019-05-29T08:23:03.268Z,0.33
2019-05-29T08:26:08.624Z,0.37
2019-05-29T08:29:12.944Z,0.40
2019-05-29T08:32:17.324Z,0.30
2019-05-29T08:35:21.854Z,0.30
2019-05-29T08:38:26.126Z,0.30
2019-05-29T08:41:30.475Z,0.40
2019-05-29T08:44:34.809Z,0.20
2019-05-29T08:47:39.118Z,0.30
2019-05-29T08:50:43.689Z,0.40
2019-05-29T08:53:48.769Z,0.70
2019-05-29T08:56:53.264Z,0.80
2019-05-29T08:59:57.694Z,0.90
2019-05-29T09:03:02.049Z,0.77
2019-05-29T09:06:09.045Z,0.80
2019-05-29T09:09:12.420Z,0.90
2019-05-29T09:12:16.731Z,0.90
2019-05-29T09:15:21.912Z,0.70
2019-05-29T09:18:26.557Z,0.77
2019-05-29T09:21:30.934Z,0.80
2019-05-29T09:24:35.301Z,1.00
2019-05-29T09:27:39.679Z,0.77
2019-05-29T09:30:45.232Z,0.87
2019-05-29T09:33:49.692Z,0.83
2019-05-29T09:36:55.847Z,1.00
2019-05-29T09:40:00.416Z,0.70
2019-05-29T09:43:04.780Z,1.07
2019-05-29T09:46:09.146Z,0.80
2019-05-29T09:49:13.544Z,0.90
2019-05-29T09:52:17.900Z,0.90
2019-05-29T09:55:23.842Z,1.17
2019-05-29T09:58:28.212Z,1.00
2019-05-29T10:01:32.507Z,1.27
2019-05-29T10:04:36.862Z,1.07
2019-05-29T10:07:41.218Z,1.03
2019-05-29T10:10:45.709Z,1.20
2019-05-29T10:13:49.989Z,1.10
2019-05-29T10:16:56.150Z,1.20
2019-05-29T10:20:00.777Z,1.10
2019-05-29T10:23:05.300Z,1.20
2019-05-29T10:26:09.772Z,1.10
2019-05-29T10:29:14.037Z,1.20
2019-05-29T10:32:18.323Z,3.00
2019-05-29T10:35:22.705Z,4.50
2019-05-29T10:38:27.218Z,6.13
2019-05-29T10:41:31.609Z,5.33
2019-05-29T10:44:38.531Z,5.40
2019-05-29T10:47:43.267Z,6.33
2019-05-29T10:50:50.464Z,5.00
2019-05-29T10:53:57.894Z,4.00
2019-05-29T10:56:59.928Z,3.80
2019-05-29T11:00:04.563Z,3.50
2019-05-29T11:03:09.567Z,3.70
2019-05-29T11:06:14.024Z,3.40
2019-05-29T11:09:18.527Z,3.50
2019-05-29T11:12:22.919Z,3.40
2019-05-29T11:15:27.283Z,3.23
2019-05-29T11:18:31.562Z,3.17
2019-05-29T11:21:35.871Z,3.60
2019-05-29T11:24:40.213Z,3.40
2019-05-29T11:27:44.816Z,3.57
2019-05-29T11:30:51.558Z,4.80
2019-05-29T11:33:55.431Z,5.23
2019-05-29T11:36:59.838Z,6.20
2019-05-29T11:40:04.453Z,6.27
2019-05-29T11:43:09.325Z,6.80
2019-05-29T11:46:14.193Z,6.67
2019-05-29T11:49:18.549Z,5.63
2019-05-29T11:52:24.999Z,5.60
2019-05-29T11:55:28.915Z,5.30
2019-05-29T11:58:33.311Z,4.80
2019-05-29T12:01:49.606Z,4.43
2019-05-29T12:04:44.873Z,5.17
2019-05-29T12:07:49.251Z,4.10
2019-05-29T12:10:53.564Z,4.47
2019-05-29T12:14:00.515Z,4.40
2019-05-29T12:17:05.470Z,3.87
2019-05-29T12:20:26.363Z,4.27
2019-05-29T12:23:25.581Z,4.20
2019-05-29T12:26:23.368Z,5.40
2019-05-29T12:29:27.865Z,4.60
2019-05-29T12:32:32.139Z,7.70
2019-05-29T12:35:38.573Z,7.03
2019-05-29T12:38:43.020Z,6.87
2019-05-29T12:41:47.410Z,6.13
2019-05-29T12:44:51.789Z,6.10
2019-05-29T12:47:59.828Z,6.20
2019-05-29T12:51:04.589Z,5.63
2019-05-29T12:54:09.020Z,6.13
2019-05-29T12:57:13.370Z,6.97
2019-05-29T13:00:18.921Z,7.73
2019-05-29T13:03:23.624Z,8.53
2019-05-29T13:06:29.213Z,8.87
2019-05-29T13:09:34.361Z,10.53
2019-05-29T13:12:39.448Z,8.93
2019-05-29T13:15:43.818Z,9.83
2019-05-29T13:18:48.569Z,10.50
2019-05-29T13:21:53.168Z,10.20
2019-05-29T13:24:59.310Z,8.10
2019-05-29T13:28:04.760Z,8.40
2019-05-29T13:31:10.626Z,8.40
2019-05-29T13:34:15.487Z,8.50
2019-05-29T13:37:20.242Z,8.20
2019-05-29T13:40:25.330Z,8.80
2019-05-29T13:43:30.028Z,8.50
2019-05-29T13:46:34.750Z,9.00
2019-05-29T13:49:39.321Z,8.93
2019-05-29T13:52:44.057Z,9.10
2019-05-29T13:55:51.062Z,9.20
2019-05-29T13:58:55.662Z,9.30
2019-05-29T14:02:05.837Z,9.90
2019-05-29T14:05:08.789Z,10.50
2019-05-29T14:08:13.254Z,10.50
2019-05-29T14:11:18.757Z,8.57
2019-05-29T14:14:24.005Z,8.57
2019-05-29T14:17:28.376Z,7.97
2019-05-29T14:20:32.794Z,8.07
2019-05-29T14:23:39.600Z,8.43
2019-05-29T14:26:44.867Z,8.47
2019-05-29T14:29:49.358Z,8.20
2019-05-29T14:32:53.782Z,8.30
2019-05-29T14:35:58.337Z,7.90
2019-05-29T14:39:03.693Z,8.20
2019-05-29T14:42:08.768Z,7.83
2019-05-29T14:45:14.783Z,6.93
2019-05-29T14:48:19.176Z,7.57
2019-05-29T14:51:23.689Z,7.37
2019-05-29T14:54:41.214Z,8.57
2019-05-29T14:57:34.154Z,7.17
2019-05-29T15:00:38.531Z,6.67
2019-05-29T15:03:43.049Z,7.13
2019-05-29T15:06:47.974Z,6.60
2019-05-29T15:09:52.432Z,6.60
2019-05-29T15:13:00.133Z,6.67
2019-05-29T15:16:04.736Z,5.07
2019-05-29T15:19:11.022Z,6.20
2019-05-29T15:22:16.042Z,6.23
2019-05-29T15:25:24.171Z,6.23
2019-05-29T15:28:27.360Z,6.77
2019-05-29T15:31:32.550Z,6.17
2019-05-29T15:34:37.052Z,5.93
2019-05-29T15:37:42.465Z,5.77
2019-05-29T15:40:47.394Z,6.30
2019-05-29T15:43:51.848Z,6.23
2019-05-29T15:46:59.048Z,6.17
2019-05-29T15:50:05.040Z,6.77
2019-05-29T15:53:11.003Z,6.77
2019-05-29T15:56:27.486Z,7.40
2019-05-29T15:59:23.312Z,7.47
2019-05-29T16:02:27.928Z,6.30
2019-05-29T16:05:32.810Z,6.30
2019-05-29T16:08:38.118Z,5.60
2019-05-29T16:11:43.117Z,5.60
2019-05-29T16:14:47.488Z,6.23
2019-05-29T16:17:52.317Z,6.70
2019-05-29T16:20:56.771Z,5.80
2019-05-29T16:24:01.214Z,6.50
2019-05-29T16:27:08.714Z,5.97
2019-05-29T16:30:15.740Z,4.20
2019-05-29T16:33:20.078Z,4.17
2019-05-29T16:36:25.228Z,4.57
2019-05-29T16:39:29.948Z,5.00
2019-05-29T16:42:35.182Z,5.40
2019-05-29T16:45:43.968Z,4.97
2019-05-29T16:48:48.431Z,3.70
2019-05-29T16:51:53.865Z,3.90
2019-05-29T16:55:01.694Z,4.00
2019-05-29T16:58:07.638Z,3.90
2019-05-29T17:01:13.360Z,3.40
2019-05-29T17:04:22.170Z,3.60
2019-05-29T17:07:27.183Z,3.20
2019-05-29T17:10:39.011Z,3.63
2019-05-29T17:13:44.310Z,3.07
2019-05-29T17:16:48.973Z,3.40
2019-05-29T17:19:54.745Z,3.50
2019-05-29T17:22:59.108Z,3.13
2019-05-29T17:26:10.622Z,3.10
2019-05-29T17:29:09.843Z,3.40
2019-05-29T17:32:14.757Z,2.83
2019-05-29T17:35:21.209Z,2.70
2019-05-29T17:38:27.381Z,2.97
2019-05-29T17:41:32.800Z,3.13
2019-05-29T17:44:37.752Z,3.47
2019-05-29T17:47:42.448Z,3.70
2019-05-29T17:50:47.208Z,4.33
2019-05-29T17:53:51.587Z,5.30
2019-05-29T17:56:56.767Z,6.17
2019-05-29T18:00:02.518Z,6.00
2019-05-29T18:03:07.277Z,7.00
2019-05-29T18:06:11.784Z,6.30
2019-05-29T18:09:17.194Z,6.60
2019-05-29T18:12:22.955Z,6.27
2019-05-29T18:15:28.609Z,6.43
2019-05-29T18:18:33.407Z,6.67
2019-05-29T18:21:40.055Z,8.63
2019-05-29T18:24:44.726Z,9.37
2019-05-29T18:27:49.411Z,11.57
2019-05-29T18:30:54.715Z,11.47
2019-05-29T18:33:59.403Z,13.33
2019-05-29T18:37:03.871Z,12.80
2019-05-29T18:40:12.610Z,12.37
2019-05-29T18:43:20.369Z,11.60
2019-05-29T18:46:27.154Z,12.00
2019-05-29T18:49:32.670Z,12.00
2019-05-29T18:52:37.483Z,12.90
2019-05-29T18:55:42.193Z,13.67
2019-05-29T18:58:47.143Z,15.20
2019-05-29T19:01:51.789Z,16.10
2019-05-29T19:04:56.192Z,15.47
2019-05-29T19:08:01.994Z,15.97
2019-05-29T19:11:06.672Z,17.63
2019-05-29T19:14:11.088Z,19.00
2019-05-29T19:17:15.581Z,18.73
2019-05-29T19:20:24.230Z,19.47
2019-05-29T19:23:28.847Z,19.27
2019-05-29T19:26:36.606Z,19.77
2019-05-29T19:29:39.418Z,20.00
2019-05-29T19:32:44.271Z,20.03
2019-05-29T19:35:50.255Z,19.23
2019-05-29T19:38:54.691Z,20.03
2019-05-29T19:41:59.293Z,20.97
2019-05-29T19:45:09.550Z,20.53
2019-05-29T19:48:14.010Z,22.57
2019-05-29T19:51:18.469Z,22.43
2019-05-29T19:54:23.061Z,22.73
2019-05-29T19:57:28.128Z,22.30
2019-05-29T20:00:32.621Z,22.43
2019-05-29T20:03:37.533Z,20.43
2019-05-29T20:06:41.981Z,20.80
2019-05-29T20:09:47.109Z,20.83
2019-05-29T20:12:51.838Z,20.13
2019-05-29T20:15:56.288Z,20.90
2019-05-29T20:19:02.377Z,19.70
2019-05-29T20:22:07.689Z,21.63
2019-05-29T20:25:13.976Z,22.87
2019-05-29T20:28:21.401Z,20.50
2019-05-29T20:31:30.449Z,21.50
2019-05-29T20:34:34.970Z,21.67
2019-05-29T20:37:39.767Z,22.67
2019-05-29T20:40:44.461Z,25.10
2019-05-29T20:43:49.105Z,30.90
2019-05-29T20:46:53.549Z,28.67
2019-05-29T20:50:01.205Z,29.43
2019-05-29T20:53:05.811Z,26.33
2019-05-29T20:56:10.285Z,23.47
2019-05-29T20:59:14.706Z,20.60
2019-05-29T21:02:19.122Z,20.30
2019-05-29T21:05:23.558Z,19.67
2019-05-29T21:08:27.982Z,18.00
2019-05-29T21:11:33.298Z,16.63
2019-05-29T21:14:39.831Z,14.97
2019-05-29T21:17:44.266Z,14.43
2019-05-29T21:20:49.133Z,14.60
2019-05-29T21:23:53.792Z,12.83
2019-05-29T21:26:58.554Z,12.87
2019-05-29T21:30:03.085Z,12.00
2019-05-29T21:33:07.478Z,11.77
2019-05-29T21:36:11.723Z,12.17
2019-05-29T21:39:16.120Z,11.50
2019-05-29T21:42:20.526Z,12.47
2019-05-29T21:45:24.992Z,12.37
2019-05-29T21:48:29.356Z,13.17
2019-05-29T21:51:33.737Z,12.70
2019-05-29T21:54:39.261Z,13.70
2019-05-29T21:57:46.615Z,15.10
2019-05-29T22:00:51.138Z,14.80
2019-05-29T22:03:55.655Z,15.00
2019-05-29T22:06:59.926Z,15.33
2019-05-29T22:10:09.359Z,15.40
2019-05-29T22:13:14.182Z,15.93
2019-05-29T22:16:18.587Z,15.87
2019-05-29T22:19:23.046Z,16.93
2019-05-29T22:22:27.392Z,15.63
2019-05-29T22:25:34.427Z,14.57
2019-05-29T22:28:37.784Z,16.00
2019-05-29T22:31:42.174Z,14.40
2019-05-29T22:34:46.567Z,13.97
2019-05-29T22:37:51.550Z,14.03
2019-05-29T22:40:56.047Z,13.53
2019-05-29T22:44:02.490Z,13.00
2019-05-29T22:47:06.483Z,12.40
2019-05-29T22:50:10.962Z,12.63
2019-05-29T22:53:15.365Z,12.07
2019-05-29T22:56:19.796Z,11.80
2019-05-29T22:59:31.800Z,11.97
2019-05-29T23:02:30.513Z,11.40
2019-05-29T23:05:34.813Z,11.57
2019-05-29T23:08:39.209Z,11.80
2019-05-29T23:11:43.630Z,11.43
2019-05-29T23:14:47.910Z,10.83
2019-05-29T23:17:52.453Z,10.83
2019-05-29T23:20:56.933Z,9.93
2019-05-29T23:24:01.797Z,11.03
2019-05-29T23:27:06.156Z,10.23
2019-05-29T23:30:10.792Z,10.27
2019-05-29T23:33:15.063Z,9.67
2019-05-29T23:36:19.483Z,9.23
2019-05-29T23:39:23.832Z,9.03
2019-05-29T23:42:28.133Z,8.93
2019-05-29T23:45:32.422Z,8.00
2019-05-29T23:48:36.983Z,8.13
2019-05-29T23:51:41.335Z,7.40
2019-05-29T23:54:45.719Z,7.60
2019-05-29T23:57:50.291Z,8.40
